Time;durP1;ratioP1;P1;durP2;ratioP2;P2;SDS_P1;SDS_P2;PMS_P1;PMS_P2;Temp;Humidity;BMP_temperature;BMP_pressure;BME280_temperature;BME280_humidity;BME280_pressure;Samples;Min_cycle;Max_cycle;Signal;HPM_P1;HPM_P2
2023/03/31 00:02:00;;;;;;;8.40;3.83;;;;;;;;;;5031711;28;20425;-63
2023/03/31 00:04:30;;;;;;;7.43;4.23;;;;;;;;;;5032295;28;20437;-63
2023/03/31 00:06:56;;;;;;;9.77;4.10;;;;;;;;;;5032140;28;20800;-63
2023/03/31 00:09:23;;;;;;;5.53;3.87;;;;;;;;;;5031861;28;21099;-63
2023/03/31 00:11:51;;;;;;;10.60;4.50;;;;;;;;;;5031702;28;20422;-63
2023/03/31 00:14:18;;;;;;;4.40;4.00;;;;;;;;;;5032018;28;20445;-63
2023/03/31 00:16:44;;;;;;;8.90;4.00;;;;;;;;;;5031865;28;20422;-63
2023/03/31 00:19:16;;;;;;;5.87;4.20;;;;;;;;;;5032223;28;20402;-63
2023/03/31 00:21:43;;;;;;;9.80;4.60;;;;;;;;;;5034056;28;20983;-63
2023/03/31 00:24:09;;;;;;;8.00;3.83;;;;;;;;;;5035944;28;20503;-63
2023/03/31 00:26:36;;;;;;;9.50;4.20;;;;;;;;;;5035735;28;20456;-63
2023/03/31 00:29:05;;;;;;;9.00;4.90;;;;;;;;;;5035660;28;20429;-63
2023/03/31 00:31:31;;;;;;;7.17;4.53;;;;;;;;;;5017803;28;20442;-63
2023/03/31 00:33:57;;;;;;;6.87;4.50;;;;;;;;;;5034932;28;20501;-63
2023/03/31 00:36:26;;;;;;;4.20;3.23;;;;;;;;;;5035316;28;20405;-64
2023/03/31 00:38:59;;;;;;;5.50;3.60;;;;;;;;;;5035452;28;20892;-64
2023/03/31 00:41:31;;;;;;;8.17;4.17;;;;;;;;;;5035499;28;20891;-63
2023/03/31 00:44:29;;;;;;;8.13;4.17;;;;;;;;;;5035177;28;20468;-63
2023/03/31 00:47:03;;;;;;;17.53;4.13;;;;;;;;;;5028646;28;20465;-63
2023/03/31 00:49:35;;;;;;;4.20;3.90;;;;;;;;;;5035393;28;20496;-63
2023/03/31 00:52:04;;;;;;;6.77;3.80;;;;;;;;;;5035175;28;20798;-63
2023/03/31 00:54:33;;;;;;;4.23;3.80;;;;;;;;;;5035044;28;20527;-63
2023/03/31 00:57:05;;;;;;;5.80;3.80;;;;;;;;;;5035198;28;20481;-64
2023/03/31 00:59:33;;;;;;;4.87;3.97;;;;;;;;;;5035021;28;20484;-64
2023/03/31 01:02:03;;;;;;;8.63;4.07;;;;;;;;;;5034999;28;20441;-64
2023/03/31 01:04:32;;;;;;;8.93;4.50;;;;;;;;;;5034605;28;20422;-63
2023/03/31 01:07:01;;;;;;;8.20;4.10;;;;;;;;;;5034967;28;20455;-63
2023/03/31 01:09:33;;;;;;;8.70;5.10;;;;;;;;;;5034937;28;20425;-64
2023/03/31 01:12:01;;;;;;;4.30;3.90;;;;;;;;;;5034843;28;20498;-64
2023/03/31 01:14:27;;;;;;;6.10;3.87;;;;;;;;;;5034604;28;20420;-64
2023/03/31 01:16:53;;;;;;;6.53;4.20;;;;;;;;;;5034774;28;20449;-64
2023/03/31 01:19:41;;;;;;;5.73;4.57;;;;;;;;;;5034861;28;20423;-63
2023/03/31 01:22:26;;;;;;;4.00;3.60;;;;;;;;;;5034591;28;20936;-64
2023/03/31 01:25:00;;;;;;;5.53;4.90;;;;;;;;;;5034718;28;20408;-63
2023/03/31 01:27:34;;;;;;;4.57;4.03;;;;;;;;;;5034437;28;20808;-63
2023/03/31 01:30:09;;;;;;;5.80;4.40;;;;;;;;;;5034410;28;20408;-64
2023/03/31 01:32:40;;;;;;;5.27;4.37;;;;;;;;;;5034085;28;20441;-64
2023/03/31 01:35:24;;;;;;;9.70;4.83;;;;;;;;;;5034556;28;20778;-64
2023/03/31 01:38:09;;;;;;;6.93;4.43;;;;;;;;;;5034475;28;20408;-64
2023/03/31 01:40:58;;;;;;;7.03;4.50;;;;;;;;;;5034344;28;20418;-64
2023/03/31 01:43:45;;;;;;;5.13;4.57;;;;;;;;;;5033648;28;20438;-64
2023/03/31 01:46:12;;;;;;;10.67;4.27;;;;;;;;;;5034070;28;20419;-64
2023/03/31 01:48:46;;;;;;;4.57;4.10;;;;;;;;;;5034145;28;20427;-64
2023/03/31 01:51:31;;;;;;;4.70;4.30;;;;;;;;;;5033982;28;20408;-64
2023/03/31 01:54:15;;;;;;;7.90;4.63;;;;;;;;;;5033803;28;20454;-64
2023/03/31 01:56:46;;;;;;;8.60;4.47;;;;;;;;;;5034437;28;20807;-64
2023/03/31 01:59:25;;;;;;;6.23;5.20;;;;;;;;;;5033742;28;20443;-64
2023/03/31 02:01:56;;;;;;;9.30;5.17;;;;;;;;;;5033626;28;20808;-65
2023/03/31 02:04:26;;;;;;;7.87;4.87;;;;;;;;;;5033846;28;20424;-64
2023/03/31 02:06:55;;;;;;;4.97;4.30;;;;;;;;;;5033907;28;20482;-64
2023/03/31 02:09:25;;;;;;;5.80;4.60;;;;;;;;;;5033317;28;20511;-64
2023/03/31 02:11:55;;;;;;;7.70;4.60;;;;;;;;;;5033931;28;21009;-64
2023/03/31 02:14:24;;;;;;;7.23;4.60;;;;;;;;;;5016059;28;20420;-64
2023/03/31 02:16:51;;;;;;;11.37;5.23;;;;;;;;;;5033612;28;20439;-64
2023/03/31 02:19:19;;;;;;;11.33;5.03;;;;;;;;;;5033692;28;20507;-64
2023/03/31 02:21:50;;;;;;;13.43;5.20;;;;;;;;;;5033092;28;20411;-64
2023/03/31 02:24:17;;;;;;;9.47;4.53;;;;;;;;;;5033325;28;20420;-65
2023/03/31 02:26:49;;;;;;;9.07;5.10;;;;;;;;;;5033519;28;20464;-65
2023/03/31 02:29:17;;;;;;;8.50;5.07;;;;;;;;;;5033466;28;20526;-64
2023/03/31 02:31:43;;;;;;;13.37;5.20;;;;;;;;;;5033467;28;20416;-64
2023/03/31 02:34:09;;;;;;;6.33;4.73;;;;;;;;;;5033044;28;20437;-64
2023/03/31 02:36:39;;;;;;;9.47;4.40;;;;;;;;;;5015157;28;20423;-64
2023/03/31 02:39:08;;;;;;;12.40;5.30;;;;;;;;;;5033414;28;20446;-64
2023/03/31 02:41:37;;;;;;;7.37;5.07;;;;;;;;;;5033295;28;20903;-64
2023/03/31 02:44:03;;;;;;;7.47;4.40;;;;;;;;;;5032207;28;20434;-64
2023/03/31 02:46:31;;;;;;;9.40;4.90;;;;;;;;;;5032902;28;20442;-64
2023/03/31 02:48:59;;;;;;;5.60;4.20;;;;;;;;;;4999495;28;20420;-64
2023/03/31 02:51:25;;;;;;;7.60;4.83;;;;;;;;;;5032839;28;20464;-64
2023/03/31 02:54:14;;;;;;;5.70;4.53;;;;;;;;;;5033224;28;20828;-64
2023/03/31 02:56:48;;;;;;;11.40;5.70;;;;;;;;;;5033013;28;20471;-64
2023/03/31 02:59:17;;;;;;;7.43;4.60;;;;;;;;;;5032847;28;20433;-64
2023/03/31 03:01:43;;;;;;;7.57;5.30;;;;;;;;;;5032812;28;20517;-64
2023/03/31 03:04:17;;;;;;;13.77;5.47;;;;;;;;;;5031925;28;20424;-65
2023/03/31 03:06:59;;;;;;;11.43;4.73;;;;;;;;;;5032683;28;20863;-64
2023/03/31 03:09:25;;;;;;;8.93;5.07;;;;;;;;;;5032741;28;20466;-64
2023/03/31 03:12:12;;;;;;;5.60;4.80;;;;;;;;;;5032799;28;20426;-64
2023/03/31 03:14:47;;;;;;;7.27;4.90;;;;;;;;;;5031957;28;20392;-64
2023/03/31 03:17:36;;;;;;;8.80;4.90;;;;;;;;;;5032556;28;20407;-64
2023/03/31 03:20:07;;;;;;;8.03;5.20;;;;;;;;;;5019550;28;20511;-64
2023/03/31 03:22:33;;;;;;;12.83;4.83;;;;;;;;;;5032630;28;20754;-64
2023/03/31 03:24:59;;;;;;;9.63;4.20;;;;;;;;;;5032118;28;20534;-64
2023/03/31 03:27:28;;;;;;;6.23;4.53;;;;;;;;;;5014385;28;20467;-64
2023/03/31 03:29:54;;;;;;;8.30;5.00;;;;;;;;;;5032344;28;20699;-64
2023/03/31 03:32:20;;;;;;;9.77;4.70;;;;;;;;;;5032480;28;20408;-64
2023/03/31 03:34:46;;;;;;;11.57;5.80;;;;;;;;;;5031760;28;20519;-64
2023/03/31 03:37:12;;;;;;;11.00;4.73;;;;;;;;;;5032154;28;20412;-64
2023/03/31 03:39:38;;;;;;;8.67;5.33;;;;;;;;;;5032012;28;20415;-64
2023/03/31 03:42:04;;;;;;;8.53;5.47;;;;;;;;;;5032048;28;20497;-64
2023/03/31 03:44:30;;;;;;;14.63;8.40;;;;;;;;;;5031777;28;20411;-64
2023/03/31 03:46:56;;;;;;;34.00;19.63;;;;;;;;;;5031651;28;20478;-64
2023/03/31 03:49:22;;;;;;;11.10;5.03;;;;;;;;;;5032031;28;20469;-64
2023/03/31 03:51:48;;;;;;;8.17;5.30;;;;;;;;;;5031600;28;20412;-64
2023/03/31 03:54:14;;;;;;;8.10;5.10;;;;;;;;;;5032080;28;20443;-64
2023/03/31 03:56:40;;;;;;;12.03;5.50;;;;;;;;;;5031819;28;20415;-64
2023/03/31 03:59:06;;;;;;;6.83;4.80;;;;;;;;;;5032127;28;20436;-64
2023/03/31 04:01:32;;;;;;;12.13;5.10;;;;;;;;;;5031801;28;20532;-64
2023/03/31 04:03:58;;;;;;;7.63;4.90;;;;;;;;;;5032079;28;20570;-64
2023/03/31 04:06:24;;;;;;;7.63;5.10;;;;;;;;;;5031785;28;20868;-64
2023/03/31 04:08:50;;;;;;;8.93;4.87;;;;;;;;;;5031458;28;20493;-65
2023/03/31 04:11:20;;;;;;;11.87;7.50;;;;;;;;;;5031634;28;20416;-64
2023/03/31 04:13:46;;;;;;;9.40;5.50;;;;;;;;;;5031943;28;20478;-64
2023/03/31 04:16:15;;;;;;;5.57;5.07;;;;;;;;;;5031954;28;20395;-64
2023/03/31 04:18:41;;;;;;;7.20;4.90;;;;;;;;;;5031820;28;20423;-64
2023/03/31 04:21:11;;;;;;;5.87;4.63;;;;;;;;;;5031627;28;20404;-64
2023/03/31 04:23:41;;;;;;;8.33;5.00;;;;;;;;;;5031478;28;20415;-63
2023/03/31 04:26:10;;;;;;;7.37;4.60;;;;;;;;;;5031739;28;20431;-63
2023/03/31 04:28:36;;;;;;;6.97;5.20;;;;;;;;;;5031693;28;20876;-63
2023/03/31 04:31:05;;;;;;;7.00;5.00;;;;;;;;;;5031425;28;20474;-63
2023/03/31 04:33:37;;;;;;;10.87;5.93;;;;;;;;;;5031051;28;20408;-63
2023/03/31 04:36:05;;;;;;;10.03;5.10;;;;;;;;;;5030881;28;20615;-63
2023/03/31 04:38:37;;;;;;;9.23;5.10;;;;;;;;;;5030588;28;20416;-63
2023/03/31 04:41:06;;;;;;;16.00;11.80;;;;;;;;;;5030555;28;20480;-63
2023/03/31 04:43:32;;;;;;;8.57;5.10;;;;;;;;;;5030639;28;20434;-63
2023/03/31 04:45:58;;;;;;;12.53;6.00;;;;;;;;;;5031470;28;20411;-63
2023/03/31 04:48:26;;;;;;;14.00;6.03;;;;;;;;;;5031073;28;20550;-63
2023/03/31 04:50:52;;;;;;;12.30;5.90;;;;;;;;;;5031316;28;20439;-63
2023/03/31 04:53:21;;;;;;;11.93;6.30;;;;;;;;;;5031639;28;20435;-63
2023/03/31 04:55:50;;;;;;;13.03;6.60;;;;;;;;;;5031329;28;20800;-63
2023/03/31 04:58:16;;;;;;;8.70;5.80;;;;;;;;;;5030781;28;20428;-63
2023/03/31 05:00:42;;;;;;;7.10;6.40;;;;;;;;;;5031072;28;20443;-63
2023/03/31 05:03:08;;;;;;;9.27;5.90;;;;;;;;;;5031080;28;20427;-63
2023/03/31 05:05:34;;;;;;;17.20;7.17;;;;;;;;;;5031092;28;20879;-63
2023/03/31 05:08:00;;;;;;;11.77;7.80;;;;;;;;;;5015617;28;20471;-63
2023/03/31 05:10:26;;;;;;;12.57;6.80;;;;;;;;;;5034629;28;20415;-63
2023/03/31 05:12:52;;;;;;;21.30;10.00;;;;;;;;;;5034936;28;20403;-63
2023/03/31 05:15:19;;;;;;;11.13;9.37;;;;;;;;;;5016938;28;20498;-63
2023/03/31 05:17:45;;;;;;;15.20;8.83;;;;;;;;;;5035004;28;20399;-63
2023/03/31 05:20:12;;;;;;;25.60;9.13;;;;;;;;;;5016758;28;20785;-63
2023/03/31 05:22:39;;;;;;;16.53;8.53;;;;;;;;;;5034086;28;20950;-63
2023/03/31 05:25:08;;;;;;;13.87;8.70;;;;;;;;;;5034260;28;20415;-63
2023/03/31 05:27:34;;;;;;;14.30;6.00;;;;;;;;;;5034458;28;20485;-63
2023/03/31 05:30:01;;;;;;;7.87;6.47;;;;;;;;;;5034550;28;20472;-63
2023/03/31 05:32:29;;;;;;;12.27;8.10;;;;;;;;;;5016523;28;20940;-63
2023/03/31 05:34:56;;;;;;;12.83;8.50;;;;;;;;;;5034288;28;20495;-63
2023/03/31 05:37:23;;;;;;;11.90;7.93;;;;;;;;;;5034809;28;20487;-63
2023/03/31 05:39:49;;;;;;;15.33;7.97;;;;;;;;;;5016626;28;20419;-63
2023/03/31 05:42:15;;;;;;;13.67;7.50;;;;;;;;;;5033978;28;20430;-63
2023/03/31 05:44:41;;;;;;;15.67;7.80;;;;;;;;;;5034188;28;20779;-63
2023/03/31 05:47:07;;;;;;;19.67;7.90;;;;;;;;;;5034420;28;20463;-63
2023/03/31 05:49:33;;;;;;;15.50;8.07;;;;;;;;;;5034086;28;20418;-63
2023/03/31 05:51:59;;;;;;;12.80;7.30;;;;;;;;;;5033904;28;20478;-63
2023/03/31 05:54:26;;;;;;;17.63;8.40;;;;;;;;;;5033636;28;20427;-63
2023/03/31 05:56:52;;;;;;;13.13;7.30;;;;;;;;;;5033968;28;20844;-63
2023/03/31 05:59:21;;;;;;;15.00;7.90;;;;;;;;;;5033951;28;20494;-62
2023/03/31 06:01:47;;;;;;;18.97;8.83;;;;;;;;;;5033426;28;20495;-62
2023/03/31 06:04:12;;;;;;;19.73;8.37;;;;;;;;;;5034060;28;20901;-62
2023/03/31 06:06:38;;;;;;;10.30;6.20;;;;;;;;;;5033827;28;20505;-63
2023/03/31 06:09:05;;;;;;;7.40;4.00;;;;;;;;;;5033823;28;20472;-63
2023/03/31 06:11:34;;;;;;;7.53;4.00;;;;;;;;;;5033887;28;20551;-63
2023/03/31 06:14:02;;;;;;;5.17;4.50;;;;;;;;;;5033730;28;20761;-62
2023/03/31 06:16:28;;;;;;;6.60;4.20;;;;;;;;;;5033755;28;20443;-62
2023/03/31 06:18:56;;;;;;;9.03;4.23;;;;;;;;;;5033533;28;20408;-62
2023/03/31 06:21:22;;;;;;;5.33;3.70;;;;;;;;;;5033636;28;20480;-62
2023/03/31 06:23:48;;;;;;;3.50;3.23;;;;;;;;;;5033650;28;20503;-62
2023/03/31 06:26:15;;;;;;;5.17;3.53;;;;;;;;;;5033530;28;20423;-62
2023/03/31 06:28:42;;;;;;;4.87;2.63;;;;;;;;;;5033483;28;20524;-63
2023/03/31 06:31:11;;;;;;;3.50;3.20;;;;;;;;;;5033408;28;20419;-63
2023/03/31 06:33:37;;;;;;;5.90;2.83;;;;;;;;;;5033420;28;20986;-62
2023/03/31 06:36:05;;;;;;;4.93;4.00;;;;;;;;;;5033416;28;20413;-61
2023/03/31 06:38:32;;;;;;;9.50;4.97;;;;;;;;;;5033434;28;20448;-62
2023/03/31 06:40:58;;;;;;;6.20;4.90;;;;;;;;;;5033542;28;20400;-62
2023/03/31 06:43:24;;;;;;;8.53;5.67;;;;;;;;;;5033170;28;20423;-62
2023/03/31 06:45:52;;;;;;;6.57;5.27;;;;;;;;;;5033169;28;20440;-62
2023/03/31 06:48:18;;;;;;;6.97;4.90;;;;;;;;;;5033150;28;20455;-62
2023/03/31 06:50:47;;;;;;;5.07;4.67;;;;;;;;;;5033169;28;20459;-62
2023/03/31 06:53:12;;;;;;;4.90;4.27;;;;;;;;;;5033095;28;20420;-62
2023/03/31 06:55:39;;;;;;;7.03;4.40;;;;;;;;;;5032903;28;20946;-62
2023/03/31 06:58:05;;;;;;;4.00;3.70;;;;;;;;;;5032906;28;20922;-62
2023/03/31 07:00:33;;;;;;;4.13;3.87;;;;;;;;;;5032690;28;20430;-62
2023/03/31 07:03:00;;;;;;;3.50;3.20;;;;;;;;;;5033027;28;20455;-62
2023/03/31 07:05:27;;;;;;;2.30;1.97;;;;;;;;;;5032942;28;20953;-62
2023/03/31 07:07:57;;;;;;;1.93;1.83;;;;;;;;;;5032805;28;20558;-61
2023/03/31 07:10:26;;;;;;;3.20;2.20;;;;;;;;;;5032796;28;20523;-62
2023/03/31 07:12:54;;;;;;;2.73;1.60;;;;;;;;;;5032735;28;20851;-62
2023/03/31 07:15:20;;;;;;;1.83;1.73;;;;;;;;;;5032587;28;20412;-62
2023/03/31 07:17:49;;;;;;;1.57;1.47;;;;;;;;;;5032590;28;20496;-62
2023/03/31 07:20:16;;;;;;;2.20;2.00;;;;;;;;;;5032677;28;20444;-62
2023/03/31 07:22:46;;;;;;;5.03;1.90;;;;;;;;;;5014983;28;20424;-62
2023/03/31 07:25:13;;;;;;;2.00;1.90;;;;;;;;;;5032531;28;20407;-62
2023/03/31 07:27:39;;;;;;;2.30;2.00;;;;;;;;;;5032351;28;20451;-62
2023/03/31 07:30:06;;;;;;;3.70;2.00;;;;;;;;;;5032000;28;20442;-62
2023/03/31 07:32:33;;;;;;;2.73;1.70;;;;;;;;;;5031708;28;20499;-62
2023/03/31 07:35:01;;;;;;;4.30;1.40;;;;;;;;;;5032369;28;20435;-62
2023/03/31 07:37:27;;;;;;;1.33;1.33;;;;;;;;;;5032230;28;20412;-62
2023/03/31 07:39:56;;;;;;;2.03;1.53;;;;;;;;;;5032244;28;20408;-62
2023/03/31 07:42:22;;;;;;;2.73;1.50;;;;;;;;;;5032205;28;20412;-62
2023/03/31 07:44:48;;;;;;;1.20;1.20;;;;;;;;;;5032036;28;20431;-62
2023/03/31 07:47:14;;;;;;;3.27;1.90;;;;;;;;;;5032280;28;20538;-62
2023/03/31 07:49:40;;;;;;;1.27;1.27;;;;;;;;;;5032150;28;20419;-62
2023/03/31 07:52:06;;;;;;;1.30;1.20;;;;;;;;;;5032084;28;20427;-62
2023/03/31 07:54:32;;;;;;;3.53;1.70;;;;;;;;;;5031930;28;20466;-62
2023/03/31 07:57:00;;;;;;;1.57;1.40;;;;;;;;;;5032071;28;20470;-62
2023/03/31 07:59:26;;;;;;;1.97;1.63;;;;;;;;;;5031906;28;20890;-62
2023/03/31 08:01:55;;;;;;;2.17;1.87;;;;;;;;;;5031866;28;20439;-62
2023/03/31 08:04:21;;;;;;;1.87;1.77;;;;;;;;;;5014127;28;20761;-62
2023/03/31 08:06:50;;;;;;;1.63;1.53;;;;;;;;;;5031822;28;20462;-62
2023/03/31 08:09:21;;;;;;;1.60;1.43;;;;;;;;;;5014259;28;20793;-62
2023/03/31 08:11:47;;;;;;;7.60;1.70;;;;;;;;;;5031957;28;20867;-62
2023/03/31 08:14:12;;;;;;;1.60;1.50;;;;;;;;;;5031807;28;20436;-62
2023/03/31 08:16:39;;;;;;;1.60;1.50;;;;;;;;;;5031831;28;20777;-62
2023/03/31 08:19:05;;;;;;;3.53;1.67;;;;;;;;;;5031928;28;20439;-62
2023/03/31 08:21:33;;;;;;;3.90;1.30;;;;;;;;;;5031731;28;20450;-62
2023/03/31 08:23:59;;;;;;;1.77;1.67;;;;;;;;;;5031687;28;20412;-62
2023/03/31 08:26:25;;;;;;;2.03;1.53;;;;;;;;;;5031937;28;20415;-62
2023/03/31 08:28:54;;;;;;;1.50;1.40;;;;;;;;;;5032013;28;20442;-62
2023/03/31 08:31:22;;;;;;;1.53;1.43;;;;;;;;;;5032126;28;20405;-62
2023/03/31 08:33:48;;;;;;;1.70;1.60;;;;;;;;;;5032089;28;20495;-62
2023/03/31 08:36:15;;;;;;;4.43;2.20;;;;;;;;;;5031664;28;20441;-62
2023/03/31 08:38:48;;;;;;;4.50;2.30;;;;;;;;;;5031831;28;20421;-62
2023/03/31 08:41:34;;;;;;;8.27;2.50;;;;;;;;;;5031951;28;20435;-62
2023/03/31 08:44:03;;;;;;;11.00;2.47;;;;;;;;;;5035612;28;20429;-62
2023/03/31 08:46:32;;;;;;;9.53;2.50;;;;;;;;;;5035383;28;20828;-62
2023/03/31 08:48:59;;;;;;;4.37;2.37;;;;;;;;;;5035723;28;20413;-62
2023/03/31 08:51:32;;;;;;;8.07;2.53;;;;;;;;;;5035643;28;20425;-62
2023/03/31 08:54:06;;;;;;;7.27;2.37;;;;;;;;;;5017625;28;20487;-62
2023/03/31 08:56:37;;;;;;;8.33;2.33;;;;;;;;;;5035677;28;20907;-62
2023/03/31 08:59:03;;;;;;;8.60;2.53;;;;;;;;;;5035970;28;20407;-62
2023/03/31 09:01:46;;;;;;;6.23;2.80;;;;;;;;;;5018159;28;20431;-62
2023/03/31 09:04:21;;;;;;;4.63;2.27;;;;;;;;;;5035786;28;20424;-62
2023/03/31 09:06:56;;;;;;;6.17;2.17;;;;;;;;;;5035556;28;20460;-62
2023/03/31 09:09:34;;;;;;;12.80;2.87;;;;;;;;;;5035801;28;20457;-62
2023/03/31 09:12:06;;;;;;;4.20;2.23;;;;;;;;;;5035863;28;20417;-62
2023/03/31 09:14:40;;;;;;;5.70;1.93;;;;;;;;;;5036135;28;20487;-62
2023/03/31 09:17:10;;;;;;;4.30;2.17;;;;;;;;;;5035850;28;20425;-62
2023/03/31 09:19:38;;;;;;;6.67;1.50;;;;;;;;;;5035452;28;20517;-62
2023/03/31 09:22:08;;;;;;;5.90;1.87;;;;;;;;;;5035224;28;20497;-62
2023/03/31 09:24:41;;;;;;;5.40;1.90;;;;;;;;;;5034918;28;20509;-62
2023/03/31 09:27:08;;;;;;;4.17;1.43;;;;;;;;;;5034924;28;20462;-62
2023/03/31 09:29:43;;;;;;;2.70;1.27;;;;;;;;;;5034711;28;20422;-62
2023/03/31 09:32:20;;;;;;;7.53;1.97;;;;;;;;;;5017115;28;20423;-62
2023/03/31 09:34:47;;;;;;;4.23;1.40;;;;;;;;;;5034568;28;20500;-62
2023/03/31 09:37:13;;;;;;;4.40;1.50;;;;;;;;;;5034836;28;20453;-62
2023/03/31 09:39:40;;;;;;;6.70;2.10;;;;;;;;;;5034849;28;20494;-62
2023/03/31 09:42:09;;;;;;;15.77;1.27;;;;;;;;;;5034672;28;20801;-62
2023/03/31 09:44:38;;;;;;;10.63;2.03;;;;;;;;;;5034841;28;20418;-62
2023/03/31 09:47:13;;;;;;;5.40;1.50;;;;;;;;;;5016561;28;20478;-62
2023/03/31 09:49:40;;;;;;;4.07;2.33;;;;;;;;;;5035323;28;20402;-61
2023/03/31 09:52:12;;;;;;;3.10;1.60;;;;;;;;;;5034894;28;20415;-62
2023/03/31 09:54:47;;;;;;;5.93;1.77;;;;;;;;;;5034620;28;20453;-62
2023/03/31 09:57:27;;;;;;;5.10;2.63;;;;;;;;;;5034391;28;20509;-62
2023/03/31 09:59:55;;;;;;;3.23;2.13;;;;;;;;;;5034093;28;20453;-62
2023/03/31 10:02:24;;;;;;;5.83;2.53;;;;;;;;;;5034786;28;20531;-62
2023/03/31 10:04:51;;;;;;;4.63;1.90;;;;;;;;;;5034528;28;20501;-62
2023/03/31 10:07:21;;;;;;;7.67;2.47;;;;;;;;;;5034212;28;20625;-62
2023/03/31 10:09:47;;;;;;;7.10;2.17;;;;;;;;;;5034253;28;20990;-62
2023/03/31 10:12:23;;;;;;;5.97;2.27;;;;;;;;;;5034263;28;20444;-65
2023/03/31 10:14:50;;;;;;;5.93;2.03;;;;;;;;;;5034002;28;20419;-65
2023/03/31 10:17:21;;;;;;;6.57;2.57;;;;;;;;;;5034257;28;20431;-64
2023/03/31 10:20:07;;;;;;;15.40;1.90;;;;;;;;;;5034295;28;20427;-64
2023/03/31 10:22:34;;;;;;;7.33;2.50;;;;;;;;;;5033932;28;20443;-65
2023/03/31 10:25:16;;;;;;;9.17;2.33;;;;;;;;;;5034049;28;20438;-65
2023/03/31 10:27:45;;;;;;;6.17;2.13;;;;;;;;;;5016284;28;20471;-65
2023/03/31 10:30:12;;;;;;;6.20;2.20;;;;;;;;;;5033920;28;20421;-65
2023/03/31 10:32:44;;;;;;;2.40;2.10;;;;;;;;;;5034160;28;20411;-64
2023/03/31 10:35:21;;;;;;;5.03;2.47;;;;;;;;;;5033913;28;20412;-64
2023/03/31 10:37:48;;;;;;;4.57;1.77;;;;;;;;;;5033830;28;20422;-65
2023/03/31 10:40:15;;;;;;;9.73;2.77;;;;;;;;;;5033813;28;20498;-64
2023/03/31 10:42:45;;;;;;;7.90;2.10;;;;;;;;;;5033785;28;20427;-64
2023/03/31 10:45:14;;;;;;;5.93;1.90;;;;;;;;;;5033606;28;20441;-65
2023/03/31 10:47:40;;;;;;;9.10;2.17;;;;;;;;;;5015723;28;20987;-65
2023/03/31 10:50:13;;;;;;;4.33;1.73;;;;;;;;;;5033450;28;20458;-65
2023/03/31 10:52:47;;;;;;;2.10;1.13;;;;;;;;;;5033469;28;20964;-65
2023/03/31 10:55:14;;;;;;;1.77;0.90;;;;;;;;;;5015742;28;20420;-65
2023/03/31 10:57:40;;;;;;;1.33;0.90;;;;;;;;;;5033425;28;20410;-65
2023/03/31 11:00:09;;;;;;;7.40;1.00;;;;;;;;;;5015511;28;20444;-65
2023/03/31 11:02:38;;;;;;;2.40;1.20;;;;;;;;;;5033373;28;20445;-65
2023/03/31 11:05:24;;;;;;;4.73;1.17;;;;;;;;;;5032575;28;20416;-65
2023/03/31 11:07:56;;;;;;;1.70;0.90;;;;;;;;;;5033217;28;20958;-64
2023/03/31 11:10:34;;;;;;;1.07;0.90;;;;;;;;;;5033091;28;20746;-65
2023/03/31 11:13:15;;;;;;;1.17;0.90;;;;;;;;;;5015528;28;20420;-64
2023/03/31 11:15:56;;;;;;;1.60;0.80;;;;;;;;;;5033223;28;20434;-64
2023/03/31 11:18:34;;;;;;;3.60;0.93;;;;;;;;;;5033044;28;20397;-64
2023/03/31 11:21:05;;;;;;;1.50;0.90;;;;;;;;;;5032979;28;20416;-64
2023/03/31 11:23:40;;;;;;;1.00;0.70;;;;;;;;;;5015138;28;20436;-64
2023/03/31 11:26:12;;;;;;;1.00;0.90;;;;;;;;;;5032915;28;20745;-64
2023/03/31 11:28:38;;;;;;;1.57;0.93;;;;;;;;;;5032713;28;20470;-65
2023/03/31 11:31:10;;;;;;;1.27;1.20;;;;;;;;;;5032808;28;20903;-64
2023/03/31 11:33:36;;;;;;;4.53;1.13;;;;;;;;;;5032900;28;20458;-65
2023/03/31 11:36:03;;;;;;;2.73;1.43;;;;;;;;;;5032913;28;20420;-65
2023/03/31 11:38:49;;;;;;;3.77;1.57;;;;;;;;;;5015120;28;20842;-64
2023/03/31 11:41:30;;;;;;;7.33;1.43;;;;;;;;;;5032805;28;20413;-65
2023/03/31 11:44:02;;;;;;;4.37;1.77;;;;;;;;;;5032898;28;20488;-65
2023/03/31 11:46:35;;;;;;;7.37;2.10;;;;;;;;;;5015091;28;20500;-65
2023/03/31 11:49:08;;;;;;;6.73;2.20;;;;;;;;;;5032886;28;20413;-65
2023/03/31 11:51:46;;;;;;;5.77;1.97;;;;;;;;;;5015109;28;20433;-65
2023/03/31 11:54:17;;;;;;;2.77;1.63;;;;;;;;;;5032869;28;20857;-65
2023/03/31 11:56:43;;;;;;;6.23;1.20;;;;;;;;;;5014716;28;20544;-65
2023/03/31 11:59:13;;;;;;;2.17;0.80;;;;;;;;;;5014957;28;20413;-64
2023/03/31 12:01:40;;;;;;;1.13;0.93;;;;;;;;;;5032306;28;20825;-65
2023/03/31 12:04:12;;;;;;;2.13;1.10;;;;;;;;;;5032582;28;20463;-65
2023/03/31 12:06:41;;;;;;;3.57;1.07;;;;;;;;;;5032258;28;20439;-64
2023/03/31 12:09:07;;;;;;;1.60;0.90;;;;;;;;;;5032630;28;20436;-65
2023/03/31 12:11:39;;;;;;;2.33;1.23;;;;;;;;;;5032431;28;20478;-65
2023/03/31 12:14:10;;;;;;;1.10;1.10;;;;;;;;;;5032474;28;20928;-64
2023/03/31 12:16:45;;;;;;;6.57;1.70;;;;;;;;;;5034376;28;20415;-64
2023/03/31 12:19:14;;;;;;;5.43;2.63;;;;;;;;;;5036642;28;20414;-65
2023/03/31 12:21:45;;;;;;;11.03;1.73;;;;;;;;;;5036438;28;20415;-65
2023/03/31 12:24:12;;;;;;;5.43;1.77;;;;;;;;;;5018810;28;20426;-65
2023/03/31 12:26:49;;;;;;;7.10;2.53;;;;;;;;;;5036637;28;20386;-65
2023/03/31 12:29:21;;;;;;;7.80;1.10;;;;;;;;;;5036505;28;20413;-65
2023/03/31 12:31:48;;;;;;;4.10;1.20;;;;;;;;;;5036429;28;20446;-65
2023/03/31 12:34:18;;;;;;;0.97;0.83;;;;;;;;;;5036633;28;20402;-66
2023/03/31 12:36:53;;;;;;;5.70;1.00;;;;;;;;;;5036004;28;20908;-65
2023/03/31 12:39:22;;;;;;;2.33;1.17;;;;;;;;;;5036397;28;20492;-66
2023/03/31 12:42:03;;;;;;;1.17;0.80;;;;;;;;;;5036265;28;20419;-66
2023/03/31 12:44:34;;;;;;;5.40;1.30;;;;;;;;;;5036234;28;20515;-66
2023/03/31 12:47:16;;;;;;;3.40;1.33;;;;;;;;;;5036007;28;20476;-67
2023/03/31 12:50:00;;;;;;;2.00;1.37;;;;;;;;;;5036086;28;20455;-67
2023/03/31 12:52:51;;;;;;;2.30;1.13;;;;;;;;;;5035601;28;20438;-66
2023/03/31 12:55:20;;;;;;;1.40;1.30;;;;;;;;;;5036126;28;20730;-66
2023/03/31 12:57:46;;;;;;;1.83;1.27;;;;;;;;;;5035821;28;20527;-66
2023/03/31 13:00:26;;;;;;;2.47;1.33;;;;;;;;;;5035808;28;20459;-66
2023/03/31 13:03:13;;;;;;;4.00;1.70;;;;;;;;;;5035624;28;20892;-67
2023/03/31 13:05:46;;;;;;;1.50;1.20;;;;;;;;;;5035716;28;20445;-66
2023/03/31 13:08:32;;;;;;;7.60;2.07;;;;;;;;;;5017972;28;20456;-67
2023/03/31 13:11:00;;;;;;;4.53;2.13;;;;;;;;;;5035486;28;22318;-67
2023/03/31 13:13:29;;;;;;;3.47;1.93;;;;;;;;;;5035629;28;20472;-65
2023/03/31 13:15:58;;;;;;;6.60;2.03;;;;;;;;;;5035528;28;20410;-66
2023/03/31 13:18:27;;;;;;;8.20;1.60;;;;;;;;;;5035148;28;20515;-66
2023/03/31 13:21:00;;;;;;;4.67;1.80;;;;;;;;;;5017345;28;20417;-66
2023/03/31 13:23:27;;;;;;;3.47;1.10;;;;;;;;;;5017738;28;20453;-67
2023/03/31 13:25:53;;;;;;;6.83;0.90;;;;;;;;;;5035643;28;20408;-66
2023/03/31 13:28:22;;;;;;;4.50;1.00;;;;;;;;;;5034473;28;20493;-65
2023/03/31 13:30:56;;;;;;;1.10;0.73;;;;;;;;;;5035218;28;20440;-66
2023/03/31 13:33:31;;;;;;;2.50;0.83;;;;;;;;;;5035150;28;20431;-66
2023/03/31 13:36:06;;;;;;;1.23;1.23;;;;;;;;;;5035241;28;20408;-67
2023/03/31 13:38:52;;;;;;;3.87;1.07;;;;;;;;;;5035250;28;20455;-66
2023/03/31 13:41:22;;;;;;;2.07;0.70;;;;;;;;;;5035104;28;20415;-67
2023/03/31 13:43:57;;;;;;;1.10;0.70;;;;;;;;;;5034892;28;20493;-67
2023/03/31 13:46:33;;;;;;;2.60;1.00;;;;;;;;;;5035130;28;20411;-67
2023/03/31 13:49:08;;;;;;;0.93;0.53;;;;;;;;;;5034658;28;20542;-65
2023/03/31 13:51:50;;;;;;;2.50;0.83;;;;;;;;;;5034556;28;20450;-66
2023/03/31 13:54:35;;;;;;;1.40;1.10;;;;;;;;;;5034991;28;20419;-65
2023/03/31 13:57:20;;;;;;;11.50;1.33;;;;;;;;;;5017012;28;20455;-63
2023/03/31 14:00:01;;;;;;;1.90;0.87;;;;;;;;;;5034813;28;20419;-63
2023/03/31 14:02:33;;;;;;;2.10;1.00;;;;;;;;;;5034869;28;20427;-65
2023/03/31 14:05:08;;;;;;;0.87;0.87;;;;;;;;;;5034428;28;20408;-61
2023/03/31 14:07:44;;;;;;;2.23;1.03;;;;;;;;;;5034678;28;20534;-60
2023/03/31 14:10:27;;;;;;;0.77;0.70;;;;;;;;;;5034579;28;20408;-60
2023/03/31 14:13:04;;;;;;;1.10;1.10;;;;;;;;;;5034443;28;20407;-62
2023/03/31 14:15:30;;;;;;;1.17;1.10;;;;;;;;;;5034456;28;20422;-61
2023/03/31 14:17:58;;;;;;;3.60;1.63;;;;;;;;;;5034101;28;20435;-60
2023/03/31 14:20:43;;;;;;;5.53;4.97;;;;;;;;;;5034504;28;20400;-61
2023/03/31 14:23:09;;;;;;;5.23;1.10;;;;;;;;;;5016481;28;20777;-61
2023/03/31 14:25:35;;;;;;;1.20;0.80;;;;;;;;;;5034306;28;20415;-61
2023/03/31 14:28:20;;;;;;;1.80;0.80;;;;;;;;;;5034093;28;20470;-61
2023/03/31 14:31:04;;;;;;;1.80;0.87;;;;;;;;;;5034387;28;20407;-61
2023/03/31 14:33:45;;;;;;;5.20;1.33;;;;;;;;;;5034268;28;20459;-63
2023/03/31 14:36:29;;;;;;;1.60;0.60;;;;;;;;;;5034171;28;20419;-61
2023/03/31 14:39:01;;;;;;;7.03;1.00;;;;;;;;;;5033649;28;20919;-61
2023/03/31 14:41:30;;;;;;;2.20;0.67;;;;;;;;;;5033888;28;20843;-61
2023/03/31 14:43:57;;;;;;;2.80;0.90;;;;;;;;;;5034148;28;20804;-60
2023/03/31 14:46:23;;;;;;;5.03;1.80;;;;;;;;;;5016130;28;20430;-60
2023/03/31 14:48:50;;;;;;;0.83;0.80;;;;;;;;;;5033687;28;20471;-60
2023/03/31 14:51:18;;;;;;;2.20;1.30;;;;;;;;;;5015960;28;20952;-60
2023/03/31 14:53:46;;;;;;;1.20;0.97;;;;;;;;;;5033685;28;20442;-62
2023/03/31 14:56:15;;;;;;;1.90;0.90;;;;;;;;;;5033855;28;20813;-61
2023/03/31 14:58:43;;;;;;;1.37;1.17;;;;;;;;;;5033715;28;20451;-61
2023/03/31 15:01:16;;;;;;;2.00;0.83;;;;;;;;;;5033718;28;20845;-61